Time;durP1;ratioP1;P1;durP2;ratioP2;P2;SDS_P1;SDS_P2;PMS_P1;PMS_P2;Temp;Humidity;BMP_temperature;BMP_pressure;BME280_temperature;BME280_humidity;BME280_pressure;Samples;Min_cycle;Max_cycle;Signal;HPM_P1;HPM_P2
2022/09/12 00:01:32;;;;;;;20.20;13.48;;;;;;;;;;7370550;19;20010;-81
2022/09/12 00:03:59;;;;;;;20.67;13.77;;;;;;;;;;7362183;19;20010;-82
2022/09/12 00:06:25;;;;;;;20.75;14.52;;;;;;;;;;7357361;19;20082;-81
2022/09/12 00:08:52;;;;;;;23.83;16.55;;;;;;;;;;7362442;19;20051;-83
2022/09/12 00:11:18;;;;;;;22.00;16.75;;;;;;;;;;7368700;19;20459;-79
2022/09/12 00:13:43;;;;;;;21.08;15.15;;;;;;;;;;7371603;19;20002;-81
2022/09/12 00:16:15;;;;;;;21.25;15.90;;;;;;;;;;7367682;19;20052;-79
2022/09/12 00:18:41;;;;;;;29.95;19.58;;;;;;;;;;7364109;19;20504;-81
2022/09/12 00:21:06;;;;;;;32.05;22.52;;;;;;;;;;7359561;19;19999;-84
2022/09/12 00:23:31;;;;;;;29.80;21.37;;;;;;;;;;7366708;19;20526;-83
2022/09/12 00:25:57;;;;;;;30.15;20.70;;;;;;;;;;7371168;19;20276;-81
2022/09/12 00:28:22;;;;;;;35.33;23.30;;;;;;;;;;7368165;19;20019;-82
2022/09/12 00:30:47;;;;;;;33.10;21.87;;;;;;;;;;7354965;19;20010;-81
2022/09/12 00:33:14;;;;;;;35.67;24.05;;;;;;;;;;7367403;19;20255;-82
2022/09/12 00:35:46;;;;;;;39.65;24.25;;;;;;;;;;7327693;19;20327;-81
2022/09/12 00:38:12;;;;;;;30.17;20.70;;;;;;;;;;7344426;19;20014;-83
2022/09/12 00:40:38;;;;;;;32.40;21.98;;;;;;;;;;7364759;19;20019;-81
2022/09/12 00:43:04;;;;;;;26.48;17.65;;;;;;;;;;7361450;19;20010;-83
2022/09/12 00:45:29;;;;;;;23.33;17.00;;;;;;;;;;7370137;19;20016;-80
2022/09/12 00:47:56;;;;;;;25.92;16.15;;;;;;;;;;7360011;19;20017;-81
2022/09/12 00:50:22;;;;;;;21.48;14.05;;;;;;;;;;7360996;19;20011;-81
2022/09/12 00:52:53;;;;;;;22.13;15.40;;;;;;;;;;7366400;19;20006;-81
2022/09/12 00:55:27;;;;;;;21.13;13.98;;;;;;;;;;7369049;19;20023;-82
2022/09/12 00:57:52;;;;;;;26.38;17.23;;;;;;;;;;7369438;19;20375;-80
2022/09/12 01:00:19;;;;;;;24.27;17.42;;;;;;;;;;7364975;19;20025;-83
2022/09/12 01:02:45;;;;;;;27.85;17.85;;;;;;;;;;7366368;19;20022;-82
2022/09/12 01:05:12;;;;;;;26.27;17.13;;;;;;;;;;7355528;19;20605;-80
2022/09/12 01:07:38;;;;;;;23.63;16.73;;;;;;;;;;7364632;19;20017;-80
2022/09/12 01:10:04;;;;;;;25.10;16.52;;;;;;;;;;7352458;19;20817;-83
2022/09/12 01:12:30;;;;;;;22.52;14.73;;;;;;;;;;7359475;19;20010;-81
2022/09/12 01:14:55;;;;;;;24.73;15.60;;;;;;;;;;7366303;19;20011;-81
2022/09/12 01:17:20;;;;;;;26.80;19.47;;;;;;;;;;7375846;19;20007;-80
2022/09/12 01:20:16;;;;;;;25.50;18.40;;;;;;;;;;7361486;19;20295;-81
2022/09/12 01:23:09;;;;;;;25.92;18.83;;;;;;;;;;7372245;19;20086;-81
2022/09/12 01:25:37;;;;;;;27.67;17.17;;;;;;;;;;7368854;19;20349;-81
2022/09/12 01:28:21;;;;;;;32.03;19.55;;;;;;;;;;7366601;19;20020;-80
2022/09/12 01:30:54;;;;;;;33.38;21.73;;;;;;;;;;7360427;19;20099;-80
2022/09/12 01:33:26;;;;;;;29.20;19.23;;;;;;;;;;7363986;19;20006;-80
2022/09/12 01:35:59;;;;;;;26.15;17.52;;;;;;;;;;7368043;19;20010;-80
2022/09/12 01:38:28;;;;;;;26.30;19.00;;;;;;;;;;7363932;19;20010;-80
2022/09/12 01:40:53;;;;;;;27.48;18.35;;;;;;;;;;7357204;19;20122;-80
2022/09/12 01:43:44;;;;;;;24.30;17.77;;;;;;;;;;7364155;19;20141;-80
2022/09/12 01:46:16;;;;;;;25.98;16.92;;;;;;;;;;7359779;19;20090;-82
2022/09/12 01:48:53;;;;;;;27.60;17.48;;;;;;;;;;7362589;19;20286;-80
2022/09/12 01:51:25;;;;;;;26.98;19.15;;;;;;;;;;7351953;19;20010;-81
2022/09/12 01:53:51;;;;;;;28.55;17.17;;;;;;;;;;7369691;19;20046;-83
2022/09/12 01:56:25;;;;;;;31.88;17.25;;;;;;;;;;7374422;19;20474;-81
2022/09/12 01:59:00;;;;;;;25.85;18.10;;;;;;;;;;7371604;19;20014;-81
2022/09/12 02:01:28;;;;;;;26.20;17.35;;;;;;;;;;7366041;19;20385;-83
2022/09/12 02:04:05;;;;;;;28.92;18.65;;;;;;;;;;7368245;19;20021;-81
2022/09/12 02:06:38;;;;;;;29.08;18.38;;;;;;;;;;7359920;19;20014;-81
2022/09/12 02:09:07;;;;;;;32.25;17.80;;;;;;;;;;7364724;19;20022;-80
2022/09/12 02:11:34;;;;;;;26.60;18.45;;;;;;;;;;7366978;19;20014;-81
2022/09/12 02:14:02;;;;;;;23.63;17.10;;;;;;;;;;7357736;19;20074;-81
2022/09/12 02:16:33;;;;;;;29.98;17.95;;;;;;;;;;7370556;19;20654;-81
2022/09/12 02:19:18;;;;;;;29.73;18.40;;;;;;;;;;7370305;19;20022;-82
2022/09/12 02:21:45;;;;;;;28.02;19.38;;;;;;;;;;7372211;19;20089;-81
2022/09/12 02:24:13;;;;;;;27.20;18.80;;;;;;;;;;7360544;19;20010;-80
2022/09/12 02:26:45;;;;;;;31.75;19.10;;;;;;;;;;7352179;19;20458;-81
2022/09/12 02:29:11;;;;;;;29.38;19.20;;;;;;;;;;7372432;19;20014;-83
2022/09/12 02:31:40;;;;;;;29.48;19.83;;;;;;;;;;7376254;19;20446;-81
2022/09/12 02:34:17;;;;;;;31.05;19.95;;;;;;;;;;7369175;19;20007;-83
2022/09/12 02:36:48;;;;;;;25.08;17.55;;;;;;;;;;7370956;19;20006;-80
2022/09/12 02:39:18;;;;;;;30.75;18.38;;;;;;;;;;7367020;19;20014;-82
2022/09/12 02:41:43;;;;;;;32.45;20.20;;;;;;;;;;7365040;19;20030;-81
2022/09/12 02:44:09;;;;;;;30.73;19.13;;;;;;;;;;7374978;19;20451;-81
2022/09/12 02:46:39;;;;;;;29.37;18.93;;;;;;;;;;7354454;19;20002;-83
2022/09/12 02:49:05;;;;;;;30.75;19.95;;;;;;;;;;7368132;19;20247;-81
2022/09/12 02:51:30;;;;;;;28.00;19.35;;;;;;;;;;7363358;19;20033;-80
2022/09/12 02:53:55;;;;;;;35.05;20.30;;;;;;;;;;7369468;19;20030;-80
2022/09/12 02:56:26;;;;;;;31.63;20.83;;;;;;;;;;7364339;19;20007;-83
2022/09/12 02:58:51;;;;;;;25.48;18.33;;;;;;;;;;7370190;19;20014;-81
2022/09/12 03:01:19;;;;;;;33.28;19.88;;;;;;;;;;7373951;19;20025;-81
2022/09/12 03:04:03;;;;;;;27.65;19.35;;;;;;;;;;7362546;19;20108;-80
2022/09/12 03:06:29;;;;;;;32.83;22.15;;;;;;;;;;7354207;19;20010;-83
2022/09/12 03:08:54;;;;;;;29.20;19.77;;;;;;;;;;7364330;19;20022;-80
2022/09/12 03:11:32;;;;;;;27.35;19.00;;;;;;;;;;7369856;19;20006;-81
2022/09/12 03:13:58;;;;;;;31.23;20.88;;;;;;;;;;7371387;19;20199;-81
2022/09/12 03:16:28;;;;;;;29.55;19.95;;;;;;;;;;7359087;19;20094;-81
2022/09/12 03:19:01;;;;;;;31.95;21.25;;;;;;;;;;7364413;19;20017;-81
2022/09/12 03:21:30;;;;;;;34.20;21.90;;;;;;;;;;7367662;19;21851;-81
2022/09/12 03:24:08;;;;;;;30.08;20.33;;;;;;;;;;7371799;19;20009;-84
2022/09/12 03:26:54;;;;;;;30.20;20.13;;;;;;;;;;7378091;19;19998;-81
2022/09/12 03:29:19;;;;;;;36.65;23.45;;;;;;;;;;7370493;19;20041;-81
2022/09/12 03:31:48;;;;;;;32.65;21.40;;;;;;;;;;7360853;19;20014;-81
2022/09/12 03:34:14;;;;;;;27.95;19.85;;;;;;;;;;7379003;19;20030;-83
2022/09/12 03:36:40;;;;;;;33.25;22.65;;;;;;;;;;7370217;19;20015;-83
2022/09/12 03:39:05;;;;;;;30.95;20.17;;;;;;;;;;7373506;19;20019;-80
2022/09/12 03:41:30;;;;;;;33.38;20.75;;;;;;;;;;7380618;19;20021;-81
2022/09/12 03:43:56;;;;;;;35.57;22.27;;;;;;;;;;7371946;19;20013;-83
2022/09/12 03:46:21;;;;;;;34.22;21.67;;;;;;;;;;7363503;19;20299;-84
2022/09/12 03:48:46;;;;;;;31.30;20.58;;;;;;;;;;7380510;19;20034;-81
2022/09/12 03:51:11;;;;;;;30.00;20.47;;;;;;;;;;7365446;19;20018;-83
2022/09/12 03:53:36;;;;;;;28.37;20.27;;;;;;;;;;7370290;19;20274;-81
2022/09/12 03:56:06;;;;;;;34.28;20.40;;;;;;;;;;7378167;19;20262;-80
2022/09/12 03:58:32;;;;;;;29.52;20.08;;;;;;;;;;7376746;19;20014;-82
2022/09/12 04:00:58;;;;;;;33.28;20.02;;;;;;;;;;7382332;19;20786;-83
2022/09/12 04:03:23;;;;;;;30.00;20.23;;;;;;;;;;7373475;19;20051;-81
2022/09/12 04:05:48;;;;;;;29.08;18.67;;;;;;;;;;7372431;19;20694;-81
2022/09/12 04:08:13;;;;;;;36.87;18.90;;;;;;;;;;7380804;19;21180;-81
2022/09/12 04:10:39;;;;;;;27.75;18.65;;;;;;;;;;7382841;19;20270;-81
2022/09/12 04:13:04;;;;;;;31.27;20.23;;;;;;;;;;7360872;19;20420;-83
2022/09/12 04:15:29;;;;;;;26.70;18.45;;;;;;;;;;7380932;19;20010;-80
2022/09/12 04:17:54;;;;;;;26.38;18.00;;;;;;;;;;7380350;19;20034;-80
2022/09/12 04:20:19;;;;;;;26.63;19.10;;;;;;;;;;7373005;19;20038;-81
2022/09/12 04:22:45;;;;;;;27.70;18.27;;;;;;;;;;7383260;19;20726;-82
2022/09/12 04:25:10;;;;;;;30.77;20.15;;;;;;;;;;7385654;19;20512;-79
2022/09/12 04:27:36;;;;;;;28.25;20.02;;;;;;;;;;7364255;19;20051;-82
2022/09/12 04:30:01;;;;;;;31.17;19.73;;;;;;;;;;7380049;19;20006;-80
2022/09/12 04:32:28;;;;;;;29.60;20.45;;;;;;;;;;7361041;19;20853;-82
2022/09/12 04:34:53;;;;;;;32.70;20.88;;;;;;;;;;7355963;19;20619;-82
2022/09/12 04:37:18;;;;;;;28.08;18.67;;;;;;;;;;7369266;19;19999;-82
2022/09/12 04:39:44;;;;;;;29.63;19.40;;;;;;;;;;7375057;19;20003;-80
2022/09/12 04:42:09;;;;;;;27.20;18.67;;;;;;;;;;7382526;19;20518;-79
2022/09/12 04:44:34;;;;;;;29.47;19.27;;;;;;;;;;7382045;19;20259;-80
2022/09/12 04:46:59;;;;;;;29.95;19.70;;;;;;;;;;7380416;19;20271;-79
2022/09/12 04:49:24;;;;;;;27.77;19.07;;;;;;;;;;7377722;19;20833;-79
2022/09/12 04:51:51;;;;;;;32.03;19.83;;;;;;;;;;7373669;19;20319;-82
2022/09/12 04:54:17;;;;;;;33.88;20.38;;;;;;;;;;7371645;19;20280;-81
2022/09/12 04:56:44;;;;;;;29.70;20.50;;;;;;;;;;7367854;19;20107;-80
2022/09/12 04:59:09;;;;;;;29.42;20.27;;;;;;;;;;7373915;19;20003;-82
2022/09/12 05:01:34;;;;;;;29.38;18.98;;;;;;;;;;7377998;19;20011;-82
2022/09/12 05:04:00;;;;;;;28.65;18.80;;;;;;;;;;7374154;19;20030;-82
2022/09/12 05:06:27;;;;;;;28.67;18.85;;;;;;;;;;7377167;19;20011;-82
2022/09/12 05:08:53;;;;;;;27.42;17.92;;;;;;;;;;7369867;19;20046;-83
2022/09/12 05:11:19;;;;;;;27.05;17.95;;;;;;;;;;7374449;19;20577;-82
2022/09/12 05:13:45;;;;;;;28.25;19.50;;;;;;;;;;7364233;19;20015;-83
2022/09/12 05:16:11;;;;;;;29.38;18.80;;;;;;;;;;7353656;19;20519;-85
2022/09/12 05:18:36;;;;;;;27.42;18.83;;;;;;;;;;7373143;19;20014;-84
2022/09/12 05:21:03;;;;;;;23.95;17.05;;;;;;;;;;7377699;19;20390;-84
2022/09/12 05:23:29;;;;;;;28.38;18.55;;;;;;;;;;7369464;19;20027;-84
2022/09/12 05:25:56;;;;;;;26.27;17.92;;;;;;;;;;7377307;19;20403;-84
2022/09/12 05:28:22;;;;;;;26.45;18.55;;;;;;;;;;7380399;19;20037;-84
2022/09/12 05:30:47;;;;;;;25.27;18.27;;;;;;;;;;7376534;19;20031;-82
2022/09/12 05:33:13;;;;;;;26.50;17.53;;;;;;;;;;7367372;19;20010;-81
2022/09/12 05:35:39;;;;;;;25.75;16.88;;;;;;;;;;7372493;19;20833;-81
2022/09/12 05:38:05;;;;;;;30.77;18.38;;;;;;;;;;7363112;19;20018;-82
2022/09/12 05:40:30;;;;;;;26.27;17.15;;;;;;;;;;7369018;19;20759;-82
2022/09/12 05:42:56;;;;;;;28.58;17.17;;;;;;;;;;7371545;19;20010;-82
2022/09/12 05:45:21;;;;;;;27.98;17.25;;;;;;;;;;7366422;19;20006;-81
2022/09/12 05:47:46;;;;;;;25.80;16.53;;;;;;;;;;7367671;19;20038;-82
2022/09/12 05:50:11;;;;;;;24.73;16.13;;;;;;;;;;7347543;19;20888;-82
2022/09/12 05:52:37;;;;;;;24.77;16.05;;;;;;;;;;7348171;19;20033;-82
2022/09/12 05:55:02;;;;;;;22.03;15.63;;;;;;;;;;7345179;19;20015;-82
2022/09/12 05:57:28;;;;;;;21.67;15.38;;;;;;;;;;7331755;19;20282;-82
2022/09/12 05:59:53;;;;;;;22.58;16.27;;;;;;;;;;7350031;19;20112;-82
2022/09/12 06:02:18;;;;;;;26.30;16.60;;;;;;;;;;7350213;19;20014;-81
2022/09/12 06:04:44;;;;;;;22.80;15.50;;;;;;;;;;7355784;19;20027;-82
2022/09/12 06:07:10;;;;;;;22.63;15.57;;;;;;;;;;7355274;19;20392;-82
2022/09/12 06:09:35;;;;;;;23.63;15.80;;;;;;;;;;7339155;19;20477;-81
2022/09/12 06:12:00;;;;;;;23.58;16.13;;;;;;;;;;7370179;19;20006;-82
2022/09/12 06:14:26;;;;;;;23.27;15.43;;;;;;;;;;7368655;19;20006;-82
2022/09/12 06:16:51;;;;;;;25.92;16.00;;;;;;;;;;7371145;19;20116;-81
2022/09/12 06:19:18;;;;;;;24.63;16.13;;;;;;;;;;7369280;19;20599;-82
2022/09/12 06:21:43;;;;;;;20.80;14.90;;;;;;;;;;7361109;19;20251;-82
2022/09/12 06:24:08;;;;;;;23.60;16.83;;;;;;;;;;7378452;19;20368;-82
2022/09/12 06:26:34;;;;;;;23.02;15.50;;;;;;;;;;7377271;19;20014;-82
2022/09/12 06:28:59;;;;;;;23.60;15.43;;;;;;;;;;7369374;19;20018;-82
2022/09/12 06:31:28;;;;;;;21.33;14.40;;;;;;;;;;7374284;19;20466;-82
2022/09/12 06:33:53;;;;;;;20.50;14.73;;;;;;;;;;7377705;19;20047;-82
2022/09/12 06:36:23;;;;;;;21.23;14.52;;;;;;;;;;7360078;19;20102;-82
2022/09/12 06:38:52;;;;;;;21.38;14.32;;;;;;;;;;7378179;19;20332;-82
2022/09/12 06:41:17;;;;;;;18.05;12.88;;;;;;;;;;7366615;19;20019;-82
2022/09/12 06:43:43;;;;;;;17.67;11.43;;;;;;;;;;7372876;19;20142;-82
2022/09/12 06:46:09;;;;;;;15.43;10.95;;;;;;;;;;7373861;19;20574;-82
2022/09/12 06:48:34;;;;;;;16.33;11.18;;;;;;;;;;7373220;19;20017;-82
2022/09/12 06:51:03;;;;;;;18.42;11.93;;;;;;;;;;7361100;19;20072;-82
2022/09/12 06:53:29;;;;;;;19.77;11.80;;;;;;;;;;7352331;19;20010;-82
2022/09/12 06:55:59;;;;;;;17.88;11.43;;;;;;;;;;7376931;19;20009;-81
2022/09/12 06:58:24;;;;;;;18.05;11.10;;;;;;;;;;7382587;19;20030;-82
2022/09/12 07:00:49;;;;;;;18.20;11.33;;;;;;;;;;7377360;19;20087;-81
2022/09/12 07:03:15;;;;;;;16.35;10.85;;;;;;;;;;7369444;19;20259;-81
2022/09/12 07:05:40;;;;;;;19.67;10.93;;;;;;;;;;7364541;19;20472;-81
2022/09/12 07:08:05;;;;;;;16.23;10.93;;;;;;;;;;7373057;19;20058;-81
2022/09/12 07:10:30;;;;;;;19.70;10.80;;;;;;;;;;7374231;19;20018;-81
2022/09/12 07:12:56;;;;;;;17.37;10.20;;;;;;;;;;7376260;19;20607;-81
2022/09/12 07:15:21;;;;;;;14.97;9.73;;;;;;;;;;7358760;19;20275;-81
2022/09/12 07:17:46;;;;;;;15.57;9.60;;;;;;;;;;7372044;19;20267;-81
2022/09/12 07:20:11;;;;;;;15.83;9.80;;;;;;;;;;7367550;19;20081;-82
2022/09/12 07:22:36;;;;;;;13.80;9.87;;;;;;;;;;7373865;19;20263;-81
2022/09/12 07:25:02;;;;;;;14.93;10.20;;;;;;;;;;7372958;19;20758;-81
2022/09/12 07:27:27;;;;;;;18.33;10.93;;;;;;;;;;7369180;19;20026;-82
2022/09/12 07:29:52;;;;;;;17.60;10.27;;;;;;;;;;7370299;19;20050;-81
2022/09/12 07:32:17;;;;;;;17.47;10.37;;;;;;;;;;7370431;19;20013;-82
2022/09/12 07:34:44;;;;;;;15.40;9.60;;;;;;;;;;7357496;19;20031;-82
2022/09/12 07:37:09;;;;;;;14.00;10.07;;;;;;;;;;7363936;19;20017;-82
2022/09/12 07:39:34;;;;;;;14.53;10.53;;;;;;;;;;7370088;19;20003;-82
2022/09/12 07:41:59;;;;;;;13.73;9.17;;;;;;;;;;7376221;19;20252;-82
2022/09/12 07:44:25;;;;;;;16.67;9.77;;;;;;;;;;7369839;19;20023;-82
2022/09/12 07:46:51;;;;;;;14.55;8.80;;;;;;;;;;7372868;19;20011;-82
2022/09/12 07:49:16;;;;;;;13.88;9.05;;;;;;;;;;7367440;19;20021;-82
2022/09/12 07:51:42;;;;;;;12.25;8.27;;;;;;;;;;7363684;19;20007;-82
2022/09/12 07:54:08;;;;;;;13.93;8.30;;;;;;;;;;7371762;19;20577;-82
2022/09/12 07:56:33;;;;;;;11.38;7.72;;;;;;;;;;7368340;19;20328;-82
2022/09/12 07:58:58;;;;;;;11.40;7.85;;;;;;;;;;7362756;19;20010;-82
2022/09/12 08:01:23;;;;;;;12.33;7.60;;;;;;;;;;7370968;19;20268;-82
2022/09/12 08:03:52;;;;;;;13.63;7.97;;;;;;;;;;7367241;19;20455;-82
2022/09/12 08:06:24;;;;;;;12.77;8.07;;;;;;;;;;7363321;19;20074;-82
2022/09/12 08:08:50;;;;;;;11.80;7.68;;;;;;;;;;7376876;19;20007;-82
2022/09/12 08:11:16;;;;;;;12.98;8.15;;;;;;;;;;7380866;19;20018;-81
2022/09/12 08:13:42;;;;;;;12.02;7.95;;;;;;;;;;7378715;19;20132;-81
2022/09/12 08:16:10;;;;;;;11.05;8.07;;;;;;;;;;7378887;19;20014;-81
2022/09/12 08:18:36;;;;;;;17.33;8.68;;;;;;;;;;7361064;19;20034;-81
2022/09/12 08:21:05;;;;;;;12.57;8.48;;;;;;;;;;7367572;19;20398;-81
2022/09/12 08:23:31;;;;;;;14.90;7.85;;;;;;;;;;7367577;19;20447;-81
2022/09/12 08:25:57;;;;;;;13.13;8.05;;;;;;;;;;7373131;19;20011;-81
2022/09/12 08:28:23;;;;;;;10.52;7.15;;;;;;;;;;7368673;19;20011;-81
2022/09/12 08:30:48;;;;;;;13.15;7.43;;;;;;;;;;7368895;19;20097;-82
2022/09/12 08:33:14;;;;;;;11.52;7.95;;;;;;;;;;7359798;19;20458;-81
2022/09/12 08:35:39;;;;;;;10.13;6.90;;;;;;;;;;7371127;19;20011;-81
2022/09/12 08:38:04;;;;;;;13.13;6.85;;;;;;;;;;7359673;19;20018;-81
2022/09/12 08:40:29;;;;;;;10.90;6.23;;;;;;;;;;7381739;19;20026;-81
2022/09/12 08:43:05;;;;;;;11.20;7.40;;;;;;;;;;7381626;19;20295;-81
2022/09/12 08:45:37;;;;;;;9.88;5.95;;;;;;;;;;7379441;19;20091;-81
2022/09/12 08:48:04;;;;;;;9.23;5.43;;;;;;;;;;7374191;19;20038;-81
2022/09/12 08:50:29;;;;;;;8.18;5.68;;;;;;;;;;7372359;19;20055;-81
2022/09/12 08:52:57;;;;;;;9.32;5.80;;;;;;;;;;7380102;19;20332;-80
2022/09/12 08:55:41;;;;;;;8.32;5.03;;;;;;;;;;7380359;19;20025;-80
2022/09/12 08:58:15;;;;;;;12.77;5.45;;;;;;;;;;7360860;19;20010;-79
2022/09/12 09:00:59;;;;;;;12.20;5.35;;;;;;;;;;7379701;19;20082;-79
2022/09/12 09:03:25;;;;;;;10.18;5.47;;;;;;;;;;7380908;19;20343;-80
2022/09/12 09:05:58;;;;;;;10.50;5.50;;;;;;;;;;7373941;19;20880;-79
2022/09/12 09:08:30;;;;;;;11.68;5.82;;;;;;;;;;7378803;19;20015;-78
2022/09/12 09:10:58;;;;;;;9.25;5.97;;;;;;;;;;7378215;19;20034;-79
2022/09/12 09:16:33;;;;;;;10.13;5.30;;;;;;;;;;7369113;19;20021;-79
2022/09/12 09:19:01;;;;;;;8.02;4.75;;;;;;;;;;7376829;19;20260;-78
2022/09/12 09:21:56;;;;;;;12.18;5.30;;;;;;;;;;7365810;19;20011;-80
2022/09/12 09:24:24;;;;;;;7.57;4.90;;;;;;;;;;7379768;19;20406;-80
2022/09/12 09:27:15;;;;;;;11.07;4.63;;;;;;;;;;7373711;19;20011;-79
2022/09/12 09:29:44;;;;;;;7.70;4.40;;;;;;;;;;7366958;19;20591;-80
2022/09/12 09:32:12;;;;;;;7.28;4.30;;;;;;;;;;7366240;19;20007;-79
2022/09/12 09:34:38;;;;;;;6.72;3.95;;;;;;;;;;7373733;19;20015;-80
2022/09/12 09:37:15;;;;;;;8.88;4.38;;;;;;;;;;7375127;19;20038;-80
2022/09/12 09:40:00;;;;;;;7.43;3.80;;;;;;;;;;7378554;19;20022;-80
2022/09/12 09:42:29;;;;;;;6.18;3.80;;;;;;;;;;7377492;19;20018;-80
2022/09/12 09:44:56;;;;;;;10.10;4.25;;;;;;;;;;7371678;19;20085;-80
2022/09/12 09:47:21;;;;;;;6.22;4.10;;;;;;;;;;7370222;19;20046;-80
2022/09/12 09:49:46;;;;;;;6.10;3.60;;;;;;;;;;7375376;19;20021;-81
2022/09/12 09:52:14;;;;;;;7.83;3.17;;;;;;;;;;7379318;19;20483;-79
2022/09/12 09:54:45;;;;;;;5.63;2.97;;;;;;;;;;7370365;19;20734;-80
2022/09/12 09:57:29;;;;;;;6.05;3.08;;;;;;;;;;7379432;19;20018;-80
2022/09/12 09:59:54;;;;;;;6.28;3.30;;;;;;;;;;7379790;19;20792;-80
2022/09/12 10:02:22;;;;;;;5.80;3.00;;;;;;;;;;7374617;19;20011;-81
2022/09/12 10:04:57;;;;;;;5.97;2.95;;;;;;;;;;7374837;19;20014;-79
2022/09/12 10:07:23;;;;;;;7.35;3.22;;;;;;;;;;7367771;19;20018;-80
2022/09/12 10:10:07;;;;;;;6.97;3.40;;;;;;;;;;7376129;19;20075;-80
2022/09/12 10:12:32;;;;;;;;;;;;;;;;;;7379734;19;20019;-79
2022/09/12 10:14:59;;;;;;;5.05;2.65;;;;;;;;;;7374290;19;19946;-81
2022/09/12 10:17:30;;;;;;;5.35;2.65;;;;;;;;;;7375915;19;20035;-79
2022/09/12 10:19:55;;;;;;;6.30;2.60;;;;;;;;;;7370132;19;20332;-80
2022/09/12 10:22:23;;;;;;;6.63;2.35;;;;;;;;;;7379124;19;20006;-80
2022/09/12 10:24:53;;;;;;;6.55;3.15;;;;;;;;;;7369969;19;20619;-79
2022/09/12 10:27:20;;;;;;;4.97;2.33;;;;;;;;;;7380689;19;20018;-79
2022/09/12 10:29:53;;;;;;;6.72;2.65;;;;;;;;;;7380414;19;20047;-80
2022/09/12 10:32:33;;;;;;;5.53;2.25;;;;;;;;;;7373679;19;20509;-80
2022/09/12 10:35:01;;;;;;;4.75;2.05;;;;;;;;;;7371260;19;20351;-79
2022/09/12 10:37:31;;;;;;;4.00;1.80;;;;;;;;;;7373244;19;20416;-79
2022/09/12 10:39:58;;;;;;;4.68;2.13;;;;;;;;;;7352630;19;20277;-79
2022/09/12 10:42:41;;;;;;;5.68;2.25;;;;;;;;;;7369671;19;20010;-80
2022/09/12 10:45:17;;;;;;;3.95;1.85;;;;;;;;;;7364277;19;20244;-81
2022/09/12 10:47:42;;;;;;;3.42;1.83;;;;;;;;;;7372462;19;20015;-79
2022/09/12 10:50:25;;;;;;;6.33;2.20;;;;;;;;;;7365009;19;20032;-79
2022/09/12 10:52:51;;;;;;;5.90;2.60;;;;;;;;;;7371883;19;20007;-80
2022/09/12 10:55:17;;;;;;;6.65;2.17;;;;;;;;;;7373366;19;20021;-79
2022/09/12 10:58:02;;;;;;;5.38;2.22;;;;;;;;;;7371309;19;20118;-79
2022/09/12 11:00:29;;;;;;;4.68;2.08;;;;;;;;;;7371176;19;20014;-80
2022/09/12 11:03:13;;;;;;;4.00;1.90;;;;;;;;;;7376736;19;20010;-79
2022/09/12 11:05:50;;;;;;;7.00;2.72;;;;;;;;;;7364717;19;20016;-79
2022/09/12 11:08:34;;;;;;;5.68;2.67;;;;;;;;;;7335871;19;20002;-80
2022/09/12 11:11:02;;;;;;;4.60;2.53;;;;;;;;;;7360573;19;20013;-80
2022/09/12 11:13:28;;;;;;;4.78;2.30;;;;;;;;;;7361357;19;20022;-78
2022/09/12 11:15:53;;;;;;;6.13;2.40;;;;;;;;;;7371927;19;20002;-79
2022/09/12 11:18:25;;;;;;;5.10;2.17;;;;;;;;;;7349253;19;20266;-80
2022/09/12 11:20:51;;;;;;;6.10;2.33;;;;;;;;;;7348345;19;20015;-80
2022/09/12 11:23:22;;;;;;;4.37;2.07;;;;;;;;;;7368039;19;20014;-78
2022/09/12 11:25:51;;;;;;;6.47;3.03;;;;;;;;;;7375411;19;20319;-79
2022/09/12 11:28:19;;;;;;;4.25;2.10;;;;;;;;;;7378002;19;20006;-80
2022/09/12 11:31:02;;;;;;;4.82;2.50;;;;;;;;;;7354746;19;20573;-80
2022/09/12 11:33:42;;;;;;;7.45;2.20;;;;;;;;;;7355375;19;20018;-80
2022/09/12 11:36:13;;;;;;;7.68;2.40;;;;;;;;;;7360644;19;20031;-80
2022/09/12 11:38:59;;;;;;;7.57;2.83;;;;;;;;;;7358725;19;20350;-81
2022/09/12 11:41:30;;;;;;;4.15;2.03;;;;;;;;;;7377184;19;20002;-79
2022/09/12 11:44:13;;;;;;;5.03;2.42;;;;;;;;;;7381807;19;20007;-80
2022/09/12 11:46:41;;;;;;;6.30;2.58;;;;;;;;;;7378231;19;20022;-80
2022/09/12 11:49:12;;;;;;;9.00;2.53;;;;;;;;;;7384039;19;20123;-80
2022/09/12 11:51:49;;;;;;;5.53;2.50;;;;;;;;;;7372040;19;20018;-80
2022/09/12 11:54:33;;;;;;;8.13;2.58;;;;;;;;;;7384091;19;20015;-80
2022/09/12 11:57:13;;;;;;;7.70;2.70;;;;;;;;;;7360809;19;20905;-80
2022/09/12 11:59:43;;;;;;;5.68;2.70;;;;;;;;;;7353955;19;20070;-80
2022/09/12 12:02:11;;;;;;;7.07;2.70;;;;;;;;;;7380040;19;20007;-79
2022/09/12 12:04:40;;;;;;;9.00;3.00;;;;;;;;;;7375264;19;20002;-81
2022/09/12 12:07:06;;;;;;;6.05;2.35;;;;;;;;;;7381872;19;20010;-79
2022/09/12 12:09:32;;;;;;;6.50;2.50;;;;;;;;;;7381768;19;20017;-80
2022/09/12 12:11:59;;;;;;;4.43;2.25;;;;;;;;;;7382259;19;20343;-81
2022/09/12 12:14:27;;;;;;;4.85;2.40;;;;;;;;;;7377429;19;20392;-81
2022/09/12 12:16:52;;;;;;;4.18;1.90;;;;;;;;;;7372361;19;20034;-80
2022/09/12 12:19:18;;;;;;;5.82;2.03;;;;;;;;;;7373598;19;20014;-80
2022/09/12 12:21:45;;;;;;;6.67;2.00;;;;;;;;;;7380191;19;20618;-79
2022/09/12 12:24:12;;;;;;;6.10;1.70;;;;;;;;;;7382593;19;20066;-80
2022/09/12 12:26:37;;;;;;;4.13;1.83;;;;;;;;;;7381682;19;20483;-80
2022/09/12 12:29:02;;;;;;;4.57;1.80;;;;;;;;;;7376305;19;20014;-80
2022/09/12 12:31:27;;;;;;;4.93;2.00;;;;;;;;;;7380273;19;20014;-80
2022/09/12 12:33:53;;;;;;;4.33;1.90;;;;;;;;;;7378386;19;20264;-79
2022/09/12 12:36:36;;;;;;;4.57;1.88;;;;;;;;;;7365466;19;20018;-79
2022/09/12 12:39:20;;;;;;;4.75;1.88;;;;;;;;;;7374715;19;20089;-81
2022/09/12 12:41:45;;;;;;;4.22;1.70;;;;;;;;;;7371949;19;20034;-82
2022/09/12 12:44:29;;;;;;;4.40;1.77;;;;;;;;;;7379789;19;20015;-82
2022/09/12 12:47:15;;;;;;;4.70;1.50;;;;;;;;;;7382919;19;20014;-81
2022/09/12 12:49:40;;;;;;;3.05;1.40;;;;;;;;;;7377794;19;20864;-82
2022/09/12 12:52:14;;;;;;;3.25;1.48;;;;;;;;;;7378493;19;20010;-81
2022/09/12 12:54:40;;;;;;;3.70;1.48;;;;;;;;;;7372849;19;20021;-82
2022/09/12 12:57:16;;;;;;;3.30;1.60;;;;;;;;;;7382441;19;20014;-81
2022/09/12 12:59:47;;;;;;;3.75;1.80;;;;;;;;;;7378218;19;20502;-81
2022/09/12 13:02:20;;;;;;;4.15;1.58;;;;;;;;;;7370895;19;20010;-81
2022/09/12 13:04:46;;;;;;;4.20;1.58;;;;;;;;;;7372977;19;20024;-82
2022/09/12 13:07:19;;;;;;;4.68;1.63;;;;;;;;;;7372830;19;20678;-81
2022/09/12 13:09:46;;;;;;;3.33;1.25;;;;;;;;;;7380052;19;20857;-81
2022/09/12 13:12:17;;;;;;;5.38;1.10;;;;;;;;;;7383427;19;20010;-81
2022/09/12 13:14:45;;;;;;;6.97;1.30;;;;;;;;;;7379992;19;20035;-81
2022/09/12 13:17:37;;;;;;;2.72;1.10;;;;;;;;;;7375177;19;20231;-82
2022/09/12 13:20:12;;;;;;;4.53;1.40;;;;;;;;;;7371028;19;20010;-81
2022/09/12 13:22:42;;;;;;;4.00;1.35;;;;;;;;;;7375955;19;20014;-80
2022/09/12 13:25:40;;;;;;;2.45;1.00;;;;;;;;;;7379649;19;20089;-79
2022/09/12 13:28:08;;;;;;;2.92;1.20;;;;;;;;;;7368887;19;20042;-80
2022/09/12 13:30:35;;;;;;;3.35;1.15;;;;;;;;;;7379584;19;20489;-80
2022/09/12 13:33:19;;;;;;;3.47;1.42;;;;;;;;;;7380973;19;20036;-80
2022/09/12 13:35:59;;;;;;;2.97;1.30;;;;;;;;;;7374602;19;20014;-79
2022/09/12 13:38:29;;;;;;;4.93;1.50;;;;;;;;;;7374628;19;20014;-80
2022/09/12 13:41:32;;;;;;;3.50;1.42;;;;;;;;;;7375932;19;20059;-80
2022/09/12 13:43:58;;;;;;;3.63;1.30;;;;;;;;;;7372157;19;20089;-80
2022/09/12 13:46:28;;;;;;;5.97;1.65;;;;;;;;;;7362916;19;20007;-80
2022/09/12 13:48:54;;;;;;;4.20;1.50;;;;;;;;;;7375335;19;20010;-79
2022/09/12 13:51:24;;;;;;;3.58;1.30;;;;;;;;;;7374530;19;20035;-80
2022/09/12 13:53:49;;;;;;;4.05;1.35;;;;;;;;;;7365732;19;20048;-80
2022/09/12 13:56:19;;;;;;;2.67;1.08;;;;;;;;;;7379154;19;20010;-80
2022/09/12 13:58:55;;;;;;;4.13;1.30;;;;;;;;;;7366815;19;20011;-80
2022/09/12 14:01:21;;;;;;;3.17;1.23;;;;;;;;;;7378967;19;20010;-80
2022/09/12 14:06:48;;;;;;;3.10;1.00;;;;;;;;;;7370812;19;20025;-80
2022/09/12 14:09:16;;;;;;;3.40;1.50;;;;;;;;;;7376146;19;20014;-80
2022/09/12 14:11:41;;;;;;;5.47;1.58;;;;;;;;;;7375128;19;20360;-80
2022/09/12 14:14:17;;;;;;;5.77;1.37;;;;;;;;;;7374758;19;20030;-81
2022/09/12 14:16:42;;;;;;;3.95;1.38;;;;;;;;;;7375028;19;20279;-81
2022/09/12 14:19:09;;;;;;;3.45;1.20;;;;;;;;;;7362443;19;20011;-80
2022/09/12 14:21:35;;;;;;;2.75;1.30;;;;;;;;;;7373497;19;20026;-81
2022/09/12 14:24:01;;;;;;;3.25;1.35;;;;;;;;;;7375342;19;20495;-81
2022/09/12 14:26:27;;;;;;;5.18;1.42;;;;;;;;;;7375685;19;20007;-81
2022/09/12 14:28:53;;;;;;;3.95;1.75;;;;;;;;;;7371404;19;20018;-80
2022/09/12 14:31:18;;;;;;;3.78;1.40;;;;;;;;;;7374387;19;20006;-81
